createdAt,value
2023-03-22T00:01:30.890Z,98905.28
2023-03-22T00:03:58.507Z,98904.19
2023-03-22T00:06:26.574Z,98903.50
2023-03-22T00:08:54.197Z,98906.22
2023-03-22T00:11:24.345Z,98907.47
2023-03-22T00:13:52.459Z,98907.97
2023-03-22T00:16:20.505Z,98905.47
2023-03-22T00:18:47.096Z,98909.63
2023-03-22T00:21:15.699Z,98904.72
2023-03-22T00:23:42.739Z,98907.94
2023-03-22T00:26:10.918Z,98899.38
2023-03-22T00:28:37.415Z,98897.28
2023-03-22T00:31:05.876Z,98891.81
2023-03-22T00:33:32.785Z,98893.34
2023-03-22T00:36:05.888Z,98896.84
2023-03-22T00:38:42.818Z,98893.59
2023-03-22T00:41:16.124Z,98885.38
2023-03-22T00:43:43.765Z,98892.63
2023-03-22T00:46:12.563Z,98892.91
2023-03-22T00:48:39.549Z,98891.34
2023-03-22T00:51:07.141Z,98892.00
2023-03-22T00:53:36.357Z,98885.72
2023-03-22T00:56:04.724Z,98886.41
2023-03-22T00:58:31.297Z,98874.84
2023-03-22T01:00:58.064Z,98872.38
2023-03-22T01:03:24.833Z,98878.09
2023-03-22T01:05:55.928Z,98870.66
2023-03-22T01:08:23.943Z,98869.13
2023-03-22T01:10:51.222Z,98862.13
2023-03-22T01:13:18.210Z,98861.13
2023-03-22T01:15:45.035Z,98846.53
2023-03-22T01:18:11.587Z,98851.31
2023-03-22T01:20:38.508Z,98854.13
2023-03-22T01:23:05.287Z,98840.63
2023-03-22T01:25:32.417Z,98844.56
2023-03-22T01:27:59.039Z,98835.47
2023-03-22T01:30:25.925Z,98844.63
2023-03-22T01:32:52.353Z,98830.09
2023-03-22T01:35:19.245Z,98826.72
2023-03-22T01:37:46.478Z,98827.59
2023-03-22T01:40:14.754Z,98831.22
2023-03-22T01:42:42.358Z,98824.06
2023-03-22T01:45:28.891Z,98829.22
2023-03-22T01:48:01.095Z,98829.81
2023-03-22T01:50:30.542Z,98828.38
2023-03-22T01:53:00.154Z,98828.66
2023-03-22T01:55:28.417Z,98816.66
2023-03-22T01:57:55.334Z,98824.06
2023-03-22T02:00:22.315Z,98812.38
2023-03-22T02:02:51.487Z,98817.44
2023-03-22T02:05:22.104Z,98817.56
2023-03-22T02:07:50.050Z,98816.84
2023-03-22T02:10:22.880Z,98812.53
2023-03-22T02:13:09.546Z,98811.00
2023-03-22T02:15:46.988Z,98814.75
2023-03-22T02:18:44.704Z,98813.53
2023-03-22T02:21:32.628Z,98816.50
2023-03-22T02:24:14.626Z,98801.66
2023-03-22T02:27:04.981Z,98808.81
2023-03-22T02:29:46.618Z,98800.44
2023-03-22T02:32:51.778Z,98798.41
2023-03-22T02:35:30.759Z,98790.28
2023-03-22T02:37:57.139Z,98789.97
2023-03-22T02:40:32.920Z,98793.06
2023-03-22T02:43:23.773Z,98789.28
2023-03-22T02:45:57.650Z,98786.59
2023-03-22T02:48:31.871Z,98786.28
2023-03-22T02:51:11.911Z,98785.97
2023-03-22T02:53:46.890Z,98786.25
2023-03-22T02:56:15.864Z,98782.16
2023-03-22T02:58:46.718Z,98777.66
2023-03-22T03:01:37.181Z,98775.38
2023-03-22T03:04:09.684Z,98777.22
2023-03-22T03:06:47.447Z,98771.97
2023-03-22T03:09:18.013Z,98778.59
2023-03-22T03:11:51.761Z,98781.09
2023-03-22T03:14:27.996Z,98777.22
2023-03-22T03:17:20.549Z,98773.03
2023-03-22T03:20:19.384Z,98769.25
2023-03-22T03:23:15.711Z,98764.50
2023-03-22T03:26:14.642Z,98767.44
2023-03-22T03:29:02.947Z,98756.38
2023-03-22T03:31:34.871Z,98761.16
2023-03-22T03:34:18.266Z,98755.09
2023-03-22T03:36:54.480Z,98760.19
2023-03-22T03:39:24.486Z,98757.09
2023-03-22T03:41:53.154Z,98753.97
2023-03-22T03:44:20.973Z,98755.75
2023-03-22T03:46:48.210Z,98746.09
2023-03-22T03:49:16.929Z,98746.88
2023-03-22T03:51:54.583Z,98745.22
2023-03-22T03:54:22.065Z,98758.09
2023-03-22T03:56:49.381Z,98751.25
2023-03-22T03:59:16.957Z,98747.75
2023-03-22T04:01:52.411Z,98748.91
2023-03-22T04:04:26.584Z,98757.84
2023-03-22T04:06:57.450Z,98761.53
2023-03-22T04:09:27.509Z,98767.25
2023-03-22T04:11:55.885Z,98761.78
2023-03-22T04:14:23.821Z,98757.72
2023-03-22T04:16:52.427Z,98766.03
2023-03-22T04:19:19.586Z,98761.28
2023-03-22T04:21:46.220Z,98765.59
2023-03-22T04:24:13.184Z,98763.94
2023-03-22T04:26:39.777Z,98754.81
2023-03-22T04:29:06.305Z,98762.34
2023-03-22T04:31:34.072Z,98765.78
2023-03-22T04:34:05.388Z,98772.50
2023-03-22T04:36:36.159Z,98773.47
2023-03-22T04:39:06.159Z,98776.72
2023-03-22T04:41:33.950Z,98771.06
2023-03-22T04:44:03.672Z,98761.84
2023-03-22T04:46:31.768Z,98764.91
2023-03-22T04:48:59.100Z,98759.81
2023-03-22T04:51:26.382Z,98779.31
2023-03-22T04:53:53.760Z,98780.69
2023-03-22T04:56:20.715Z,98777.41
2023-03-22T04:58:48.261Z,98765.91
2023-03-22T05:01:18.108Z,98767.88
2023-03-22T05:03:47.253Z,98757.09
2023-03-22T05:06:14.545Z,98755.44
2023-03-22T05:08:41.179Z,98763.13
2023-03-22T05:11:15.648Z,98766.06
2023-03-22T05:13:42.297Z,98759.19
2023-03-22T05:16:10.029Z,98759.56
2023-03-22T05:18:42.202Z,98760.28
2023-03-22T05:21:15.564Z,98758.47
2023-03-22T05:23:43.360Z,98755.50
2023-03-22T05:26:10.900Z,98758.03
2023-03-22T05:28:38.516Z,98750.72
2023-03-22T05:31:05.893Z,98752.69
2023-03-22T05:33:35.012Z,98752.00
2023-03-22T05:36:01.809Z,98754.22
2023-03-22T05:38:31.610Z,98766.06
2023-03-22T05:40:58.068Z,98759.50
2023-03-22T05:43:24.659Z,98752.22
2023-03-22T05:45:51.220Z,98752.50
2023-03-22T05:48:17.997Z,98753.09
2023-03-22T05:50:44.755Z,98751.59
2023-03-22T05:53:11.828Z,98753.31
2023-03-22T05:55:38.775Z,98747.13
2023-03-22T05:58:05.411Z,98747.84
2023-03-22T06:00:32.387Z,98742.50
2023-03-22T06:03:03.448Z,98750.25
2023-03-22T06:05:32.167Z,98745.75
2023-03-22T06:07:59.053Z,98745.34
2023-03-22T06:10:28.741Z,98752.09
2023-03-22T06:12:55.557Z,98758.25
2023-03-22T06:15:22.196Z,98753.50
2023-03-22T06:17:49.069Z,98750.72
2023-03-22T06:20:16.908Z,98739.50
2023-03-22T06:22:43.385Z,98753.53
2023-03-22T06:25:11.219Z,98751.16
2023-03-22T06:27:38.103Z,98757.75
2023-03-22T06:30:05.885Z,98756.59
2023-03-22T06:32:32.435Z,98750.22
2023-03-22T06:34:58.872Z,98741.50
2023-03-22T06:37:26.766Z,98743.59
2023-03-22T06:39:53.227Z,98740.88
2023-03-22T06:42:19.780Z,98746.22
2023-03-22T06:44:46.745Z,98747.75
2023-03-22T06:47:13.441Z,98750.28
2023-03-22T06:49:40.562Z,98744.75
2023-03-22T06:52:07.341Z,98743.75
2023-03-22T06:54:34.263Z,98742.19
2023-03-22T06:57:00.759Z,98738.47
2023-03-22T06:59:27.714Z,98741.69
2023-03-22T07:01:54.294Z,98746.06
2023-03-22T07:04:21.058Z,98748.13
2023-03-22T07:06:48.159Z,98740.53
2023-03-22T07:09:14.546Z,98734.59
2023-03-22T07:11:41.587Z,98748.91
2023-03-22T07:14:08.142Z,98754.06
2023-03-22T07:16:34.684Z,98742.03
2023-03-22T07:19:01.791Z,98743.13
2023-03-22T07:21:28.573Z,98739.16
2023-03-22T07:23:55.491Z,98734.19
2023-03-22T07:26:22.044Z,98731.25
2023-03-22T07:28:48.804Z,98728.50
2023-03-22T07:31:16.069Z,98723.28
2023-03-22T07:33:42.478Z,98712.44
2023-03-22T07:36:10.231Z,98718.00
2023-03-22T07:38:38.039Z,98715.06
2023-03-22T07:41:04.788Z,98724.50
2023-03-22T07:43:32.186Z,98713.84
2023-03-22T07:45:59.352Z,98700.00
2023-03-22T07:48:25.874Z,98698.53
2023-03-22T07:50:56.249Z,98700.66
2023-03-22T07:53:22.674Z,98685.31
2023-03-22T07:55:49.571Z,98673.66
2023-03-22T07:58:16.431Z,98670.47
2023-03-22T08:00:42.904Z,98674.16
2023-03-22T08:03:12.680Z,98669.63
2023-03-22T08:05:43.450Z,98667.94
2023-03-22T08:08:10.757Z,98661.91
2023-03-22T08:10:37.727Z,98669.31
2023-03-22T08:13:04.309Z,98669.31
2023-03-22T08:15:31.071Z,98667.50
2023-03-22T08:17:58.134Z,98662.00
2023-03-22T08:20:27.150Z,98662.69
2023-03-22T08:22:54.608Z,98651.97
2023-03-22T08:25:22.023Z,98650.25
2023-03-22T08:27:48.436Z,98642.56
2023-03-22T08:30:15.579Z,98647.25
2023-03-22T08:32:42.040Z,98638.16
2023-03-22T08:35:09.176Z,98641.50
2023-03-22T08:37:36.201Z,98638.13
2023-03-22T08:40:04.829Z,98647.19
2023-03-22T08:42:31.868Z,98647.84
2023-03-22T08:44:58.370Z,98650.38
2023-03-22T08:47:25.222Z,98651.56
2023-03-22T08:49:51.658Z,98654.81
2023-03-22T08:52:18.678Z,98652.31
2023-03-22T08:54:45.220Z,98652.81
2023-03-22T08:57:11.857Z,98645.31
2023-03-22T08:59:38.519Z,98636.88
2023-03-22T09:02:05.660Z,98633.88
2023-03-22T09:04:32.377Z,98638.09
2023-03-22T09:06:58.823Z,98639.78
2023-03-22T09:09:25.819Z,98639.28
2023-03-22T09:11:52.251Z,98632.53
2023-03-22T09:14:18.764Z,98617.75
2023-03-22T09:16:45.724Z,98621.59
2023-03-22T09:19:12.313Z,98621.09
2023-03-22T09:21:38.695Z,98625.97
2023-03-22T09:24:05.816Z,98620.56
2023-03-22T09:26:32.824Z,98609.47
2023-03-22T09:28:59.454Z,98616.47
2023-03-22T09:31:26.075Z,98610.47
2023-03-22T09:33:52.481Z,98610.25
2023-03-22T09:36:19.697Z,98616.00
2023-03-22T09:38:46.603Z,98597.81
2023-03-22T09:41:22.778Z,98591.00
2023-03-22T09:43:53.576Z,98606.97
2023-03-22T09:46:29.128Z,98600.81
2023-03-22T09:48:58.024Z,98603.81
2023-03-22T09:51:40.797Z,98601.41
2023-03-22T09:54:18.667Z,98599.28
2023-03-22T09:56:51.483Z,98597.06
2023-03-22T09:59:27.986Z,98589.78
2023-03-22T10:02:04.909Z,98590.34
2023-03-22T10:04:44.029Z,98608.78
2023-03-22T10:07:37.266Z,98592.44
2023-03-22T10:10:09.471Z,98590.72
2023-03-22T10:12:54.725Z,98591.22
2023-03-22T10:15:28.652Z,98568.53
2023-03-22T10:17:57.709Z,98564.81
2023-03-22T10:20:29.641Z,98558.31
2023-03-22T10:22:59.790Z,98565.19
2023-03-22T10:25:35.752Z,98567.22
2023-03-22T10:28:02.536Z,98566.53
2023-03-22T10:30:40.723Z,98570.84
2023-03-22T10:33:27.372Z,98571.50
2023-03-22T10:35:55.709Z,98575.03
2023-03-22T10:38:26.343Z,98573.38
2023-03-22T10:40:55.912Z,98557.75
2023-03-22T10:43:31.707Z,98562.50
2023-03-22T10:46:03.072Z,98566.31
2023-03-22T10:48:40.984Z,98559.97
2023-03-22T10:51:08.393Z,98568.72
2023-03-22T10:53:39.857Z,98565.47
2023-03-22T10:56:12.685Z,98568.66
2023-03-22T10:58:39.139Z,98573.75
2023-03-22T11:01:11.573Z,98574.47
2023-03-22T11:03:41.863Z,98575.13
2023-03-22T11:06:15.945Z,98577.16
2023-03-22T11:08:45.280Z,98575.25
2023-03-22T11:11:31.232Z,98584.19
2023-03-22T11:14:15.931Z,98572.09
2023-03-22T11:16:50.803Z,98572.59
2023-03-22T11:19:26.476Z,98576.41
2023-03-22T11:21:55.499Z,98574.38
2023-03-22T11:24:26.374Z,98564.59
2023-03-22T11:27:03.604Z,98570.16
2023-03-22T11:29:40.835Z,98572.19
2023-03-22T11:32:19.546Z,98575.38
2023-03-22T11:34:46.459Z,98571.03
2023-03-22T11:37:18.237Z,98571.47
2023-03-22T11:39:50.727Z,98569.06
2023-03-22T11:42:27.120Z,98568.69
2023-03-22T11:44:56.124Z,98560.78
2023-03-22T11:47:27.089Z,98558.72
2023-03-22T11:49:57.213Z,98562.34
2023-03-22T11:52:27.424Z,98561.09
2023-03-22T11:54:56.200Z,98560.59
2023-03-22T11:57:27.658Z,98558.00
2023-03-22T12:00:12.093Z,98540.91
2023-03-22T12:02:46.173Z,98549.72
2023-03-22T12:05:20.610Z,98551.81
2023-03-22T12:07:53.920Z,98549.56
2023-03-22T12:10:29.100Z,98565.75
2023-03-22T12:13:04.705Z,98552.38
2023-03-22T12:15:42.354Z,98549.41
2023-03-22T12:18:23.336Z,98559.84
2023-03-22T12:21:01.017Z,98552.97
2023-03-22T12:23:30.518Z,98540.75
2023-03-22T12:26:00.554Z,98547.13
2023-03-22T12:28:47.058Z,98539.53
2023-03-22T12:31:21.799Z,98538.44
2023-03-22T12:33:52.552Z,98536.13
2023-03-22T12:36:34.927Z,98526.53
2023-03-22T12:39:03.525Z,98534.31
2023-03-22T12:41:39.291Z,98535.94
2023-03-22T12:44:23.765Z,98539.00
2023-03-22T12:47:17.047Z,98541.72
2023-03-22T12:49:47.038Z,98535.03
2023-03-22T12:52:19.684Z,98530.19
2023-03-22T12:54:48.464Z,98540.34
2023-03-22T12:57:17.056Z,98540.28
2023-03-22T12:59:48.874Z,98536.34
2023-03-22T13:02:17.642Z,98539.06
2023-03-22T13:04:44.153Z,98537.56
2023-03-22T13:07:13.572Z,98536.13
2023-03-22T13:09:49.544Z,98543.78
2023-03-22T13:12:18.734Z,98545.16
2023-03-22T13:14:58.937Z,98547.28
2023-03-22T13:17:25.878Z,98543.19
2023-03-22T13:19:58.570Z,98538.56
2023-03-22T13:22:38.084Z,98535.88
2023-03-22T13:25:10.810Z,98553.34
2023-03-22T13:27:39.301Z,98546.06
2023-03-22T13:30:14.531Z,98556.03
2023-03-22T13:33:09.744Z,98559.44
2023-03-22T13:35:46.649Z,98555.78
2023-03-22T13:38:33.297Z,98550.25
2023-03-22T13:41:09.257Z,98551.84
2023-03-22T13:43:46.998Z,98546.22
2023-03-22T13:46:16.514Z,98540.22
2023-03-22T13:48:52.266Z,98556.34
2023-03-22T13:51:22.183Z,98565.59
2023-03-22T13:54:05.162Z,98556.69
2023-03-22T13:56:47.836Z,98543.56
2023-03-22T13:59:23.124Z,98543.88
2023-03-22T14:01:53.121Z,98525.31
2023-03-22T14:04:29.153Z,98532.63
2023-03-22T14:06:59.786Z,98512.91
2023-03-22T14:09:33.160Z,98510.19
2023-03-22T14:12:18.064Z,98514.41
2023-03-22T14:14:48.777Z,98515.47
2023-03-22T14:17:39.383Z,98500.00
2023-03-22T14:20:10.905Z,98500.16
